createdAt,value
2022-10-25T04:05:40.135Z,14.20
2022-10-25T04:08:08.211Z,14.20
2022-10-25T04:10:54.779Z,14.20
2022-10-25T04:13:23.172Z,14.20
2022-10-25T04:15:51.157Z,14.20
2022-10-25T04:18:20.492Z,14.10
2022-10-25T04:20:48.501Z,14.10
2022-10-25T04:23:16.505Z,14.10
2022-10-25T04:25:45.657Z,14.10
2022-10-25T04:28:14.664Z,14.10
2022-10-25T04:30:42.632Z,14.10
2022-10-25T04:33:23.523Z,14.20
2022-10-25T04:35:56.413Z,14.10
2022-10-25T04:38:24.776Z,14.00
2022-10-25T04:41:02.081Z,14.10
2022-10-25T04:43:30.433Z,14.10
2022-10-25T04:46:03.353Z,14.10
2022-10-25T04:48:32.769Z,14.10
2022-10-25T04:51:00.821Z,14.10
2022-10-25T04:53:28.941Z,14.10
2022-10-25T04:55:57.698Z,14.10
2022-10-25T04:58:30.365Z,14.10
2022-10-25T05:01:01.383Z,14.20
2022-10-25T05:03:29.663Z,14.20
2022-10-25T05:06:06.457Z,14.10
2022-10-25T05:08:34.641Z,14.10
2022-10-25T05:11:02.656Z,14.10
2022-10-25T05:13:33.845Z,14.10
2022-10-25T05:16:01.819Z,14.20
2022-10-25T05:18:30.205Z,14.20
2022-10-25T05:21:00.686Z,14.20
2022-10-25T05:23:29.446Z,14.10
2022-10-25T05:26:05.234Z,14.10
2022-10-25T05:28:33.245Z,14.10
2022-10-25T05:31:04.644Z,14.20
2022-10-25T05:33:32.940Z,14.10
2022-10-25T05:36:03.024Z,14.20
2022-10-25T05:38:34.309Z,14.10
2022-10-25T05:41:06.292Z,14.10
2022-10-25T05:43:34.721Z,14.20
2022-10-25T05:46:04.638Z,14.10
2022-10-25T05:48:33.511Z,14.20
2022-10-25T05:51:32.626Z,14.20
2022-10-25T05:54:03.188Z,14.10
2022-10-25T05:56:32.082Z,14.10
2022-10-25T05:59:03.497Z,14.10
2022-10-25T06:01:31.551Z,14.10
2022-10-25T06:03:59.573Z,14.10
2022-10-25T06:06:29.005Z,14.10
2022-10-25T06:08:58.259Z,14.10
2022-10-25T06:11:26.977Z,14.10
2022-10-25T06:13:55.130Z,14.10
2022-10-25T06:16:24.176Z,14.10
2022-10-25T06:18:52.163Z,14.10
2022-10-25T06:21:21.777Z,14.10
2022-10-25T06:23:51.382Z,14.10
2022-10-25T06:26:20.990Z,14.10
2022-10-25T06:28:49.033Z,14.10
2022-10-25T06:31:18.724Z,14.10
2022-10-25T06:33:47.553Z,14.10
2022-10-25T06:36:17.077Z,14.10
2022-10-25T06:38:45.157Z,14.10
2022-10-25T06:41:18.412Z,14.10
2022-10-25T06:43:50.540Z,14.10
2022-10-25T06:46:22.678Z,14.10
2022-10-25T06:48:51.365Z,14.10
2022-10-25T06:51:19.884Z,14.10
2022-10-25T06:53:47.900Z,14.10
2022-10-25T06:56:17.253Z,14.10
2022-10-25T06:58:45.230Z,14.10
2022-10-25T07:01:14.870Z,14.10
2022-10-25T07:03:43.597Z,14.10
2022-10-25T07:06:13.267Z,14.10
2022-10-25T07:08:42.760Z,14.10
2022-10-25T07:11:14.809Z,14.10
2022-10-25T07:13:44.454Z,14.10
2022-10-25T07:16:14.409Z,14.10
2022-10-25T07:18:42.420Z,14.10
2022-10-25T07:21:13.448Z,14.20
2022-10-25T07:23:43.012Z,14.20
2022-10-25T07:26:12.017Z,14.20
2022-10-25T07:28:40.102Z,14.20
2022-10-25T07:31:12.467Z,14.20
2022-10-25T07:33:40.499Z,14.20
2022-10-25T07:36:12.399Z,14.30
2022-10-25T07:38:40.779Z,14.30
2022-10-25T07:41:09.167Z,14.30
2022-10-25T07:43:37.432Z,14.20
2022-10-25T07:46:05.954Z,14.20
2022-10-25T07:48:36.351Z,14.30
2022-10-25T07:51:05.332Z,14.40
2022-10-25T07:53:33.513Z,14.40
2022-10-25T07:56:01.468Z,14.40
2022-10-25T07:58:29.603Z,14.40
2022-10-25T08:01:02.455Z,14.40
2022-10-25T08:03:30.791Z,14.40
2022-10-25T08:06:00.853Z,14.40
2022-10-25T08:08:29.233Z,14.50
2022-10-25T08:10:59.508Z,14.50
2022-10-25T08:13:27.545Z,14.60
2022-10-25T08:15:57.092Z,14.60
2022-10-25T08:18:25.321Z,14.50
2022-10-25T08:21:02.621Z,14.60
2022-10-25T08:23:32.913Z,14.60
2022-10-25T08:26:01.142Z,14.70
2022-10-25T08:28:31.064Z,14.70
2022-10-25T08:31:00.843Z,14.70
2022-10-25T08:33:29.427Z,14.80
2022-10-25T08:35:57.508Z,14.80
2022-10-25T08:38:25.509Z,14.80
2022-10-25T08:41:00.057Z,14.70
2022-10-25T08:43:46.503Z,14.80
2022-10-25T08:46:18.924Z,14.90
2022-10-25T08:48:50.088Z,15.00
2022-10-25T08:51:25.924Z,15.10
2022-10-25T08:53:56.778Z,15.10
2022-10-25T08:56:26.553Z,15.10
2022-10-25T08:58:57.254Z,15.10
2022-10-25T09:01:30.118Z,15.20
2022-10-25T09:03:59.991Z,15.20
2022-10-25T09:06:33.885Z,15.20
2022-10-25T09:09:20.267Z,15.30
2022-10-25T09:11:59.289Z,15.40
2022-10-25T09:14:33.297Z,15.50
2022-10-25T09:17:08.434Z,15.50
2022-10-25T09:19:40.304Z,15.50
2022-10-25T09:22:12.957Z,15.70
2022-10-25T09:24:57.818Z,15.80
2022-10-25T09:27:34.657Z,15.80
2022-10-25T09:30:07.449Z,15.60
2022-10-25T09:32:39.687Z,15.70
2022-10-25T09:35:14.880Z,15.80
2022-10-25T09:37:47.062Z,15.80
2022-10-25T09:40:19.529Z,15.70
2022-10-25T09:42:53.056Z,15.80
2022-10-25T09:45:26.069Z,15.80
2022-10-25T09:48:00.800Z,15.80
2022-10-25T09:50:31.321Z,15.90
2022-10-25T09:53:08.333Z,15.90
2022-10-25T09:55:40.639Z,16.00
2022-10-25T09:58:15.219Z,16.10
2022-10-25T10:00:44.348Z,16.00
2022-10-25T10:03:24.882Z,16.00
2022-10-25T10:05:56.670Z,15.90
2022-10-25T10:08:25.429Z,15.80
2022-10-25T10:10:54.855Z,15.80
2022-10-25T10:13:29.858Z,15.90
2022-10-25T10:15:59.453Z,15.90
2022-10-25T10:18:30.043Z,15.90
2022-10-25T10:21:07.999Z,15.80
2022-10-25T10:23:39.169Z,15.70
2022-10-25T10:26:14.737Z,15.80
2022-10-25T10:28:47.635Z,15.80
2022-10-25T10:31:22.856Z,15.80
2022-10-25T10:33:53.769Z,15.80
2022-10-25T10:36:25.308Z,15.70
2022-10-25T10:38:53.372Z,15.70
2022-10-25T10:41:25.797Z,15.80
2022-10-25T10:44:10.692Z,15.70
2022-10-25T10:46:44.634Z,15.80
2022-10-25T10:49:12.870Z,15.70
2022-10-25T10:51:44.374Z,15.70
2022-10-25T10:54:27.718Z,15.70
2022-10-25T10:56:57.568Z,15.80
2022-10-25T10:59:31.082Z,15.90
2022-10-25T11:01:59.520Z,15.90
2022-10-25T11:04:27.993Z,16.00
2022-10-25T11:07:14.219Z,16.00
2022-10-25T11:09:55.151Z,16.10
2022-10-25T11:12:23.170Z,16.10
2022-10-25T11:14:53.940Z,16.10
2022-10-25T11:17:31.802Z,16.10
2022-10-25T11:20:08.913Z,16.10
2022-10-25T11:25:30.117Z,16.30
2022-10-25T11:28:13.210Z,16.50
2022-10-25T11:30:48.184Z,16.60
2022-10-25T11:33:29.228Z,16.60
2022-10-25T11:36:34.033Z,16.70
2022-10-25T11:39:12.295Z,16.80
2022-10-25T11:41:46.136Z,16.80
2022-10-25T11:44:46.560Z,16.80
2022-10-25T11:47:27.032Z,16.80
2022-10-25T11:50:00.242Z,16.70
2022-10-25T11:52:57.370Z,16.80
2022-10-25T11:55:33.733Z,17.00
2022-10-25T11:58:10.961Z,17.20
2022-10-25T12:00:46.464Z,17.30
2022-10-25T12:03:23.873Z,17.40
2022-10-25T12:05:55.589Z,17.60
2022-10-25T12:08:32.180Z,17.60
2022-10-25T12:11:04.068Z,17.70
2022-10-25T12:13:34.520Z,17.70
2022-10-25T12:16:04.672Z,17.60
2022-10-25T12:18:36.886Z,17.70
2022-10-25T12:21:07.106Z,17.70
2022-10-25T12:23:40.721Z,17.70
2022-10-25T12:26:12.270Z,17.80
2022-10-25T12:28:44.966Z,17.80
2022-10-25T12:31:18.200Z,17.70
2022-10-25T12:33:50.301Z,17.90
2022-10-25T12:36:25.500Z,17.90
2022-10-25T12:38:53.484Z,17.90
2022-10-25T12:41:23.872Z,17.90
2022-10-25T12:44:06.802Z,17.80
2022-10-25T12:46:53.765Z,18.00
2022-10-25T12:49:45.964Z,18.20
2022-10-25T12:52:25.445Z,18.10
2022-10-25T12:55:01.985Z,18.20
2022-10-25T12:57:37.402Z,18.30
2022-10-25T13:00:12.034Z,18.30
2022-10-25T13:03:21.426Z,18.30
2022-10-25T13:06:05.687Z,18.20
2022-10-25T13:08:34.548Z,18.20
2022-10-25T13:11:04.633Z,18.10
2022-10-25T13:13:34.709Z,18.00
2022-10-25T13:16:04.895Z,17.90
2022-10-25T13:18:45.244Z,18.10
2022-10-25T13:21:15.622Z,18.00
2022-10-25T13:24:03.001Z,17.90
2022-10-25T13:27:15.720Z,17.80
2022-10-25T13:30:27.735Z,17.90
2022-10-25T13:33:33.223Z,17.90
2022-10-25T13:36:05.401Z,17.70
2022-10-25T13:38:39.597Z,17.80
2022-10-25T13:41:12.943Z,17.80
2022-10-25T13:44:01.300Z,17.80
2022-10-25T13:46:34.151Z,17.70
2022-10-25T13:49:03.956Z,17.70
2022-10-25T13:51:33.412Z,17.70
2022-10-25T13:54:08.407Z,17.70
2022-10-25T13:56:50.550Z,17.70
2022-10-25T13:59:39.095Z,17.60
2022-10-25T14:02:17.697Z,17.60
2022-10-25T14:04:45.875Z,17.60
2022-10-25T14:07:48.625Z,17.60
2022-10-25T14:10:30.620Z,17.60
2022-10-25T14:13:19.004Z,17.50
2022-10-25T14:15:52.505Z,17.60
2022-10-25T14:18:23.259Z,17.50
2022-10-25T14:20:55.064Z,17.60
2022-10-25T14:23:24.764Z,17.50
2022-10-25T14:25:56.009Z,17.60
2022-10-25T14:28:25.786Z,17.50
2022-10-25T14:30:55.656Z,17.60
2022-10-25T14:33:26.678Z,17.60
2022-10-25T14:35:57.192Z,17.60
2022-10-25T14:38:27.296Z,17.40
2022-10-25T14:40:58.785Z,17.40
2022-10-25T14:43:29.556Z,17.30
2022-10-25T14:46:03.774Z,17.30
2022-10-25T14:48:31.864Z,17.30
2022-10-25T14:51:02.156Z,17.30
2022-10-25T14:53:30.188Z,17.20
2022-10-25T14:56:02.407Z,17.30
2022-10-25T14:58:39.969Z,17.20
2022-10-25T15:01:08.674Z,17.10
2022-10-25T15:03:42.382Z,17.10
2022-10-25T15:06:10.485Z,17.10
2022-10-25T15:08:40.519Z,17.00
2022-10-25T15:11:14.426Z,16.90
2022-10-25T15:13:44.169Z,17.00
2022-10-25T15:16:34.535Z,17.00
2022-10-25T15:19:18.370Z,16.90
2022-10-25T15:21:48.312Z,16.90
2022-10-25T15:24:19.670Z,16.90
2022-10-25T15:26:58.388Z,16.90
2022-10-25T15:29:45.379Z,16.80
2022-10-25T15:32:16.051Z,16.80
2022-10-25T15:34:45.701Z,16.80
2022-10-25T15:37:15.025Z,16.80
2022-10-25T15:39:44.240Z,16.70
2022-10-25T15:42:15.314Z,16.70
2022-10-25T15:44:44.070Z,16.60
2022-10-25T15:47:29.047Z,16.60
2022-10-25T15:49:57.345Z,16.40
2022-10-25T15:52:25.904Z,16.40
2022-10-25T15:54:54.180Z,16.40
2022-10-25T15:57:23.571Z,16.30
2022-10-25T15:59:51.603Z,16.20
2022-10-25T16:02:21.455Z,16.10
2022-10-25T16:04:49.751Z,16.10
2022-10-25T16:07:17.776Z,16.00
2022-10-25T16:09:45.829Z,16.00
2022-10-25T16:12:19.117Z,15.90
2022-10-25T16:14:48.795Z,15.90
2022-10-25T16:17:16.752Z,15.80
2022-10-25T16:19:44.765Z,15.80
2022-10-25T16:22:12.771Z,15.70
2022-10-25T16:24:40.761Z,15.70
2022-10-25T16:27:08.772Z,15.60
2022-10-25T16:29:36.798Z,15.50
2022-10-25T16:32:06.569Z,15.50
2022-10-25T16:34:34.686Z,15.40
2022-10-25T16:37:03.921Z,15.40
2022-10-25T16:39:33.536Z,15.30
2022-10-25T16:42:01.586Z,15.20
2022-10-25T16:44:29.734Z,15.10
2022-10-25T16:46:58.383Z,15.10
2022-10-25T16:49:28.001Z,15.00
2022-10-25T16:51:56.057Z,15.00
2022-10-25T16:54:24.439Z,14.80
2022-10-25T16:56:52.520Z,14.80
2022-10-25T16:59:20.542Z,14.80
2022-10-25T17:01:55.137Z,14.90
2022-10-25T17:04:23.573Z,14.70
2022-10-25T17:06:53.041Z,14.60
2022-10-25T17:09:21.054Z,14.50
2022-10-25T17:11:49.057Z,14.40
2022-10-25T17:14:17.089Z,14.50
2022-10-25T17:16:45.851Z,14.50
2022-10-25T17:19:14.266Z,14.30
2022-10-25T17:21:42.293Z,14.40
2022-10-25T17:24:11.677Z,14.50
2022-10-25T17:26:40.131Z,14.30
2022-10-25T17:29:08.137Z,14.30
2022-10-25T17:31:36.693Z,14.10
2022-10-25T17:34:05.223Z,13.90
2022-10-25T17:36:33.508Z,13.70
2022-10-25T17:39:01.769Z,13.40
2022-10-25T17:41:31.198Z,13.70
2022-10-25T17:43:59.284Z,13.60
2022-10-25T17:46:29.153Z,13.40
2022-10-25T17:48:58.520Z,13.20
2022-10-25T17:51:26.512Z,13.00
2022-10-25T17:53:55.146Z,13.10
2022-10-25T17:56:24.221Z,13.30
2022-10-25T17:58:54.576Z,13.30
2022-10-25T18:01:24.893Z,13.20
2022-10-25T18:03:54.102Z,13.30
2022-10-25T18:06:23.781Z,13.30
2022-10-25T18:08:52.568Z,13.40
2022-10-25T18:11:23.090Z,13.30
2022-10-25T18:13:53.005Z,13.40
2022-10-25T18:16:23.336Z,13.40
2022-10-25T18:19:06.284Z,13.50
2022-10-25T18:21:40.394Z,13.30
2022-10-25T18:24:08.699Z,12.80
2022-10-25T18:26:50.604Z,12.60
2022-10-25T18:29:50.957Z,12.40
2022-10-25T18:32:19.487Z,12.20
2022-10-25T18:34:47.697Z,12.50
2022-10-25T18:37:28.800Z,12.50
2022-10-25T18:39:57.136Z,12.50
2022-10-25T18:42:25.213Z,12.90
2022-10-25T18:44:55.422Z,12.80
2022-10-25T18:47:50.453Z,12.30
2022-10-25T18:50:18.771Z,12.20
2022-10-25T18:52:46.889Z,12.10
2022-10-25T18:55:15.239Z,12.40
2022-10-25T18:57:43.442Z,12.10
2022-10-25T19:00:15.440Z,12.10
2022-10-25T19:02:43.651Z,12.30
2022-10-25T19:05:12.013Z,12.40
2022-10-25T19:07:41.451Z,12.50
2022-10-25T19:10:10.388Z,12.40
2022-10-25T19:12:38.632Z,12.40
2022-10-25T19:15:07.759Z,12.00
2022-10-25T19:17:37.954Z,11.60
2022-10-25T19:20:07.715Z,11.50
2022-10-25T19:22:36.189Z,11.70
2022-10-25T19:25:04.862Z,11.70
2022-10-25T19:27:33.295Z,11.60
2022-10-25T19:30:01.776Z,11.70
2022-10-25T19:32:32.017Z,11.60
2022-10-25T19:35:02.067Z,11.60
2022-10-25T19:37:30.560Z,11.40
2022-10-25T19:39:59.319Z,11.50
2022-10-25T19:42:27.881Z,11.50
2022-10-25T19:45:07.022Z,11.40
2022-10-25T19:47:35.650Z,11.60
2022-10-25T19:50:06.609Z,11.70
2022-10-25T19:52:35.980Z,11.50
2022-10-25T19:55:06.106Z,11.60
2022-10-25T19:57:34.227Z,11.20
2022-10-25T20:00:12.773Z,11.20
2022-10-25T20:02:42.130Z,11.10
2022-10-25T20:07:45.599Z,10.90
2022-10-25T20:10:14.646Z,11.00
2022-10-25T20:12:43.908Z,11.10
2022-10-25T20:15:17.476Z,11.10
2022-10-25T20:17:46.334Z,10.80
2022-10-25T20:20:16.206Z,10.60
2022-10-25T20:22:44.230Z,10.50
2022-10-25T20:25:12.394Z,10.50
2022-10-25T20:27:40.674Z,10.40
